createdAt,value
2022-10-18T00:00:02.042Z,0.20
2022-10-18T00:02:28.546Z,0.20
2022-10-18T00:04:55.082Z,0.20
2022-10-18T00:07:21.592Z,0.20
2022-10-18T00:09:48.266Z,0.20
2022-10-18T00:12:14.821Z,0.20
2022-10-18T00:14:41.603Z,0.10
2022-10-18T00:17:08.159Z,0.10
2022-10-18T00:19:34.880Z,0.20
2022-10-18T00:22:01.653Z,0.20
2022-10-18T00:24:28.283Z,0.30
2022-10-18T00:26:54.744Z,0.25
2022-10-18T00:29:21.423Z,0.30
2022-10-18T00:31:47.992Z,0.20
2022-10-18T00:34:15.890Z,0.20
2022-10-18T00:36:43.217Z,0.20
2022-10-18T00:39:12.472Z,0.20
2022-10-18T00:41:39.020Z,0.22
2022-10-18T00:44:05.517Z,0.20
2022-10-18T00:46:33.302Z,0.20
2022-10-18T00:49:01.523Z,0.20
2022-10-18T00:51:29.969Z,0.20
2022-10-18T00:53:56.727Z,0.30
2022-10-18T00:56:23.226Z,0.20
2022-10-18T00:58:50.277Z,0.20
2022-10-18T01:01:16.924Z,0.20
2022-10-18T01:03:43.515Z,0.20
2022-10-18T01:06:10.266Z,0.20
2022-10-18T01:08:44.535Z,0.20
2022-10-18T01:11:16.947Z,0.20
2022-10-18T01:13:51.586Z,0.20
2022-10-18T01:16:21.345Z,0.22
2022-10-18T01:19:08.056Z,0.10
2022-10-18T01:21:50.219Z,0.20
2022-10-18T01:24:19.428Z,0.20
2022-10-18T01:26:45.865Z,0.30
2022-10-18T01:29:12.336Z,0.20
2022-10-18T01:31:41.187Z,0.20
2022-10-18T01:34:09.276Z,0.25
2022-10-18T01:36:40.705Z,0.20
2022-10-18T01:39:08.796Z,0.20
2022-10-18T01:41:37.698Z,0.20
2022-10-18T01:44:06.036Z,0.20
2022-10-18T01:46:33.387Z,0.20
2022-10-18T01:49:00.204Z,0.25
2022-10-18T01:51:27.798Z,0.20
2022-10-18T01:53:54.464Z,0.30
2022-10-18T01:56:24.767Z,0.20
2022-10-18T01:59:09.727Z,0.20
2022-10-18T02:01:36.206Z,0.20
2022-10-18T02:04:10.106Z,0.25
2022-10-18T02:06:39.100Z,0.20
2022-10-18T02:09:20.240Z,0.15
2022-10-18T02:11:47.794Z,0.20
2022-10-18T02:14:15.788Z,0.20
2022-10-18T02:16:44.496Z,0.10
2022-10-18T02:19:17.193Z,0.20
2022-10-18T02:21:43.874Z,0.20
2022-10-18T02:24:11.288Z,0.20
2022-10-18T02:26:37.810Z,0.20
2022-10-18T02:29:04.511Z,0.10
2022-10-18T02:31:33.101Z,0.20
2022-10-18T02:34:07.449Z,0.20
2022-10-18T02:36:36.408Z,0.20
2022-10-18T02:39:04.811Z,0.13
2022-10-18T02:41:31.767Z,0.20
2022-10-18T02:43:58.259Z,0.20
2022-10-18T02:46:24.800Z,0.20
2022-10-18T02:48:51.289Z,0.20
2022-10-18T02:51:17.749Z,0.20
2022-10-18T02:53:44.208Z,0.28
2022-10-18T02:56:10.758Z,0.20
2022-10-18T02:58:37.209Z,0.20
2022-10-18T03:01:03.718Z,0.20
2022-10-18T03:03:30.288Z,0.30
2022-10-18T03:05:56.738Z,0.20
2022-10-18T03:08:23.249Z,0.20
2022-10-18T03:10:49.789Z,0.20
2022-10-18T03:13:16.511Z,0.20
2022-10-18T03:15:43.042Z,0.20
2022-10-18T03:18:09.728Z,0.20
2022-10-18T03:20:36.247Z,0.20
2022-10-18T03:23:03.371Z,0.30
2022-10-18T03:25:29.868Z,0.20
2022-10-18T03:27:56.298Z,0.20
2022-10-18T03:30:22.718Z,0.10
2022-10-18T03:32:49.216Z,0.20
2022-10-18T03:35:15.766Z,0.17
2022-10-18T03:37:42.237Z,0.20
2022-10-18T03:40:09.017Z,0.22
2022-10-18T03:42:35.536Z,0.20
2022-10-18T03:45:02.146Z,0.20
2022-10-18T03:47:28.796Z,0.20
2022-10-18T03:49:57.202Z,0.20
2022-10-18T03:52:23.937Z,0.20
2022-10-18T03:54:50.475Z,0.20
2022-10-18T03:57:17.003Z,0.25
2022-10-18T03:59:43.613Z,0.20
2022-10-18T04:02:10.496Z,0.20
2022-10-18T04:04:37.028Z,0.20
2022-10-18T04:07:03.550Z,0.20
2022-10-18T04:09:30.093Z,0.20
2022-10-18T04:11:56.580Z,0.20
2022-10-18T04:14:23.131Z,0.20
2022-10-18T04:16:49.755Z,0.20
2022-10-18T04:19:16.536Z,0.20
2022-10-18T04:21:43.014Z,0.20
2022-10-18T04:24:09.575Z,0.20
2022-10-18T04:26:36.234Z,0.30
2022-10-18T04:29:02.929Z,0.20
2022-10-18T04:31:29.594Z,0.20
2022-10-18T04:33:55.991Z,0.20
2022-10-18T04:36:22.431Z,0.20
2022-10-18T04:38:50.845Z,0.25
2022-10-18T04:41:17.983Z,0.20
2022-10-18T04:46:16.329Z,0.20
2022-10-18T04:48:42.874Z,0.20
2022-10-18T04:51:09.394Z,0.20
2022-10-18T04:53:35.944Z,0.20
2022-10-18T04:56:02.437Z,0.20
2022-10-18T04:58:29.074Z,0.20
2022-10-18T05:00:56.041Z,0.20
2022-10-18T05:03:22.594Z,0.25
2022-10-18T05:06:01.189Z,0.20
2022-10-18T05:08:29.130Z,0.28
2022-10-18T05:10:55.829Z,0.20
2022-10-18T05:13:22.355Z,0.20
2022-10-18T05:15:48.994Z,0.20
2022-10-18T05:18:15.751Z,0.30
2022-10-18T05:20:42.474Z,0.20
2022-10-18T05:23:11.962Z,0.20
2022-10-18T05:25:39.758Z,0.20
2022-10-18T05:28:10.897Z,0.22
2022-10-18T05:30:42.734Z,0.10
2022-10-18T05:33:09.338Z,0.13
2022-10-18T05:35:36.276Z,0.20
2022-10-18T05:38:03.987Z,0.30
2022-10-18T05:40:30.785Z,0.20
2022-10-18T05:42:57.186Z,0.20
2022-10-18T05:45:23.736Z,0.10
2022-10-18T05:47:50.308Z,0.20
2022-10-18T05:50:16.786Z,0.20
2022-10-18T05:52:43.293Z,0.10
2022-10-18T05:55:09.777Z,0.30
2022-10-18T05:57:36.253Z,0.17
2022-10-18T06:00:03.787Z,0.20
2022-10-18T06:02:30.354Z,0.20
2022-10-18T06:04:56.936Z,0.20
2022-10-18T06:07:23.496Z,0.10
2022-10-18T06:09:49.967Z,0.20
2022-10-18T06:12:16.685Z,0.20
2022-10-18T06:14:43.486Z,0.20
2022-10-18T06:17:10.576Z,0.20
2022-10-18T06:19:37.015Z,0.10
2022-10-18T06:22:03.595Z,0.20
2022-10-18T06:24:30.117Z,0.20
2022-10-18T06:26:57.544Z,0.22
2022-10-18T06:29:24.118Z,0.20
2022-10-18T06:31:50.587Z,0.20
2022-10-18T06:34:17.059Z,0.15
2022-10-18T06:36:43.536Z,0.15
2022-10-18T06:39:10.456Z,0.20
2022-10-18T06:41:36.896Z,0.10
2022-10-18T06:44:13.388Z,0.20
2022-10-18T06:46:40.966Z,0.10
2022-10-18T06:49:07.766Z,0.15
2022-10-18T06:51:34.291Z,0.20
2022-10-18T06:54:16.900Z,0.13
2022-10-18T06:56:44.816Z,0.20
2022-10-18T06:59:11.286Z,0.20
2022-10-18T07:01:37.875Z,0.20
2022-10-18T07:04:04.576Z,0.20
2022-10-18T07:06:31.076Z,0.20
2022-10-18T07:08:57.618Z,0.10
2022-10-18T07:11:25.236Z,0.10
2022-10-18T07:13:54.026Z,0.20
2022-10-18T07:16:20.757Z,0.20
2022-10-18T07:18:49.613Z,0.20
2022-10-18T07:21:17.528Z,0.20
2022-10-18T07:23:46.243Z,0.10
2022-10-18T07:26:14.749Z,0.20
2022-10-18T07:28:41.796Z,0.10
2022-10-18T07:31:09.277Z,0.20
2022-10-18T07:33:38.156Z,0.20
2022-10-18T07:36:05.994Z,0.20
2022-10-18T07:38:32.794Z,0.20
2022-10-18T07:41:00.576Z,0.30
2022-10-18T07:43:27.494Z,0.20
2022-10-18T07:46:01.030Z,0.20
2022-10-18T07:48:28.074Z,0.20
2022-10-18T07:50:54.794Z,0.20
2022-10-18T07:53:21.516Z,0.20
2022-10-18T07:55:47.995Z,0.30
2022-10-18T07:58:14.754Z,0.30
2022-10-18T08:00:41.354Z,0.22
2022-10-18T08:03:07.994Z,0.20
2022-10-18T08:05:34.730Z,0.20
2022-10-18T08:08:04.277Z,0.20
2022-10-18T08:10:34.933Z,0.22
2022-10-18T08:13:01.473Z,0.30
2022-10-18T08:15:28.041Z,0.20
2022-10-18T08:17:54.635Z,0.20
2022-10-18T08:20:30.515Z,0.22
2022-10-18T08:23:00.115Z,0.20
2022-10-18T08:25:27.409Z,0.20
2022-10-18T08:27:54.014Z,0.20
2022-10-18T08:30:20.632Z,0.17
2022-10-18T08:32:47.216Z,0.20
2022-10-18T08:35:13.842Z,0.20
2022-10-18T08:37:40.501Z,0.10
2022-10-18T08:40:07.334Z,0.20
2022-10-18T08:42:42.957Z,0.30
2022-10-18T08:45:12.891Z,0.30
2022-10-18T08:47:57.903Z,0.20
2022-10-18T08:50:27.293Z,0.10
2022-10-18T08:52:53.794Z,0.30
2022-10-18T08:55:36.333Z,0.20
2022-10-18T08:58:05.273Z,0.25
2022-10-18T09:00:35.035Z,0.30
2022-10-18T09:03:18.122Z,0.15
2022-10-18T09:05:49.314Z,0.20
2022-10-18T09:08:15.802Z,0.20
2022-10-18T09:10:53.653Z,0.20
2022-10-18T09:13:25.994Z,0.20
2022-10-18T09:15:57.160Z,0.20
2022-10-18T09:18:38.155Z,0.20
2022-10-18T09:21:40.453Z,0.30
2022-10-18T09:24:14.293Z,0.20
2022-10-18T09:26:44.875Z,0.20
2022-10-18T09:29:29.981Z,0.20
2022-10-18T09:32:04.776Z,0.10
2022-10-18T09:34:50.797Z,0.20
2022-10-18T09:37:19.416Z,0.10
2022-10-18T09:39:48.437Z,0.20
2022-10-18T09:42:18.275Z,0.10
2022-10-18T09:44:49.138Z,0.20
2022-10-18T09:47:26.538Z,0.30
2022-10-18T09:49:57.796Z,0.20
2022-10-18T09:52:30.760Z,0.20
2022-10-18T09:55:00.253Z,0.20
2022-10-18T09:57:32.339Z,0.22
2022-10-18T10:00:00.576Z,0.10
2022-10-18T10:02:27.430Z,0.28
2022-10-18T10:04:57.164Z,0.30
2022-10-18T10:07:41.406Z,0.10
2022-10-18T10:10:08.503Z,0.15
2022-10-18T10:12:37.294Z,0.20
2022-10-18T10:15:07.875Z,0.30
2022-10-18T10:17:34.954Z,0.20
2022-10-18T10:20:24.898Z,0.20
2022-10-18T10:22:52.089Z,0.30
2022-10-18T10:25:33.504Z,0.20
2022-10-18T10:28:14.317Z,0.30
2022-10-18T10:30:40.955Z,0.30
2022-10-18T10:33:27.375Z,0.20
2022-10-18T10:36:01.806Z,0.30
2022-10-18T10:38:30.256Z,0.20
2022-10-18T10:40:57.267Z,0.20
2022-10-18T10:43:37.567Z,0.30
2022-10-18T10:46:08.255Z,0.20
2022-10-18T10:48:41.016Z,0.20
2022-10-18T10:51:09.397Z,0.20
2022-10-18T10:53:40.457Z,0.20
2022-10-18T10:56:16.066Z,0.20
2022-10-18T10:58:43.155Z,0.20
2022-10-18T11:01:27.662Z,0.22
2022-10-18T11:03:55.774Z,0.30
2022-10-18T11:06:43.733Z,0.10
2022-10-18T11:09:16.956Z,0.17
2022-10-18T11:11:47.376Z,0.20
2022-10-18T11:14:25.750Z,0.28
2022-10-18T11:17:13.711Z,0.30
2022-10-18T11:19:43.037Z,0.20
2022-10-18T11:22:12.776Z,0.20
2022-10-18T11:24:39.682Z,0.20
2022-10-18T11:27:32.777Z,0.20
2022-10-18T11:30:20.095Z,0.20
2022-10-18T11:32:55.557Z,0.10
2022-10-18T11:35:25.016Z,0.10
2022-10-18T11:37:59.227Z,0.20
2022-10-18T11:40:29.056Z,0.20
2022-10-18T11:42:55.695Z,0.20
2022-10-18T11:45:38.765Z,0.20
2022-10-18T11:48:11.813Z,0.13
2022-10-18T11:50:42.890Z,0.20
2022-10-18T11:53:25.485Z,0.20
2022-10-18T11:56:02.462Z,0.30
2022-10-18T11:58:47.757Z,0.20
2022-10-18T12:01:15.736Z,0.10
2022-10-18T12:04:02.169Z,0.20
2022-10-18T12:06:34.881Z,0.20
2022-10-18T12:09:14.156Z,0.30
2022-10-18T12:11:50.243Z,0.20
2022-10-18T12:14:31.537Z,0.10
2022-10-18T12:17:28.011Z,0.20
2022-10-18T12:19:48.193Z,0.20
2022-10-18T12:22:24.668Z,0.20
2022-10-18T12:24:52.295Z,0.20
2022-10-18T12:27:19.417Z,0.20
2022-10-18T12:30:07.558Z,0.22
2022-10-18T12:32:35.817Z,0.20
2022-10-18T12:35:10.097Z,0.20
2022-10-18T12:37:36.776Z,0.20
2022-10-18T12:40:16.997Z,0.20
2022-10-18T12:42:48.801Z,0.20
2022-10-18T12:45:37.459Z,0.10
2022-10-18T12:48:08.557Z,0.30
2022-10-18T12:50:35.336Z,0.20
2022-10-18T12:53:04.098Z,0.10
2022-10-18T12:55:32.396Z,0.10
2022-10-18T12:57:59.104Z,3.90
2022-10-18T13:00:31.862Z,0.25
2022-10-18T13:03:11.558Z,0.20
2022-10-18T13:05:52.787Z,0.20
2022-10-18T13:08:35.296Z,0.10
2022-10-18T13:11:02.035Z,0.20
2022-10-18T13:13:39.602Z,0.20
2022-10-18T13:16:27.416Z,0.20
2022-10-18T13:19:03.463Z,0.20
2022-10-18T13:21:48.936Z,0.20
2022-10-18T13:24:37.396Z,0.28
2022-10-18T13:27:38.015Z,0.25
2022-10-18T13:30:30.776Z,0.30
2022-10-18T13:33:22.878Z,0.20
2022-10-18T13:35:55.307Z,0.20
2022-10-18T13:38:24.717Z,0.30
2022-10-18T13:41:08.729Z,0.20
2022-10-18T13:43:53.585Z,0.20
2022-10-18T13:46:20.977Z,0.20
2022-10-18T13:48:51.835Z,0.17
2022-10-18T13:51:18.435Z,0.20
2022-10-18T13:53:58.511Z,0.10
2022-10-18T13:56:44.074Z,0.20
2022-10-18T13:59:18.624Z,0.20
2022-10-18T14:01:53.172Z,0.30
2022-10-18T14:04:36.816Z,0.10
2022-10-18T14:07:05.326Z,0.20
2022-10-18T14:09:44.428Z,0.20
2022-10-18T14:12:17.715Z,0.20
2022-10-18T14:14:46.323Z,0.20
2022-10-18T14:17:18.039Z,0.35
2022-10-18T14:19:46.540Z,0.20
2022-10-18T14:22:13.176Z,0.20
2022-10-18T14:24:43.036Z,0.20
2022-10-18T14:27:11.494Z,0.10
2022-10-18T14:29:38.233Z,0.20
2022-10-18T14:32:08.104Z,0.20
2022-10-18T14:34:34.917Z,0.20
2022-10-18T14:37:01.797Z,0.15
2022-10-18T14:39:30.535Z,0.20
2022-10-18T14:41:57.793Z,0.20
2022-10-18T14:44:28.736Z,0.15
2022-10-18T14:47:01.081Z,0.45
2022-10-18T14:49:27.733Z,0.20
2022-10-18T14:51:56.735Z,0.20
2022-10-18T14:54:31.799Z,0.10
2022-10-18T14:56:59.677Z,0.20
2022-10-18T14:59:27.897Z,0.10
2022-10-18T15:01:57.057Z,0.15
2022-10-18T15:04:27.892Z,0.20
2022-10-18T15:06:55.553Z,0.10
2022-10-18T15:09:23.395Z,0.10
2022-10-18T15:11:50.836Z,0.20
2022-10-18T15:14:18.936Z,0.10
2022-10-18T15:16:46.412Z,0.10
2022-10-18T15:19:15.675Z,0.20
2022-10-18T15:22:03.270Z,0.20
2022-10-18T15:24:42.635Z,0.20
2022-10-18T15:27:09.553Z,0.20
2022-10-18T15:29:37.764Z,0.20
2022-10-18T15:32:07.175Z,0.20
2022-10-18T15:34:33.718Z,0.20
2022-10-18T15:37:14.584Z,0.20
2022-10-18T15:39:41.096Z,0.20
2022-10-18T15:42:27.515Z,0.20
2022-10-18T15:44:54.175Z,0.20
2022-10-18T15:47:22.255Z,0.20
2022-10-18T15:49:51.215Z,0.17
2022-10-18T15:52:33.862Z,0.17
2022-10-18T15:55:22.416Z,0.20
2022-10-18T15:57:49.763Z,0.20
2022-10-18T16:00:19.515Z,0.20
2022-10-18T16:02:46.675Z,0.30
2022-10-18T16:05:15.353Z,0.20
2022-10-18T16:07:41.976Z,0.28
2022-10-18T16:10:15.096Z,0.20
2022-10-18T16:12:41.757Z,0.15
2022-10-18T16:15:08.855Z,0.20
2022-10-18T16:17:35.811Z,0.20
2022-10-18T16:20:02.640Z,0.30
2022-10-18T16:22:31.158Z,0.10
2022-10-18T16:25:00.020Z,0.25
2022-10-18T16:27:26.722Z,0.20
2022-10-18T16:29:53.260Z,0.20
2022-10-18T16:32:19.821Z,0.30
2022-10-18T16:34:46.341Z,0.20
2022-10-18T16:37:12.846Z,0.20
2022-10-18T16:39:39.404Z,0.10
2022-10-18T16:42:05.847Z,0.30
2022-10-18T16:44:32.376Z,0.30
2022-10-18T16:46:58.916Z,0.20
2022-10-18T16:49:26.041Z,0.30
2022-10-18T16:51:53.179Z,0.20
2022-10-18T16:54:19.897Z,0.20
2022-10-18T16:56:47.843Z,0.30
2022-10-18T16:59:28.951Z,0.20
2022-10-18T17:01:55.769Z,0.20
2022-10-18T17:04:22.506Z,0.28
2022-10-18T17:06:51.723Z,6.63
2022-10-18T17:09:18.195Z,7.13
2022-10-18T17:11:44.669Z,7.45
2022-10-18T17:14:11.175Z,6.32
2022-10-18T17:16:38.949Z,6.72
2022-10-18T17:19:07.099Z,6.80
2022-10-18T17:21:33.795Z,7.38
2022-10-18T17:24:04.460Z,6.45
2022-10-18T17:26:31.388Z,7.50
2022-10-18T17:29:00.035Z,7.90
2022-10-18T17:31:27.075Z,7.97
2022-10-18T17:33:55.302Z,7.72
2022-10-18T17:36:22.063Z,8.50
2022-10-18T17:38:52.035Z,8.25
2022-10-18T17:41:18.695Z,8.15
2022-10-18T17:43:45.387Z,7.95
2022-10-18T17:46:12.405Z,8.48
2022-10-18T17:48:38.874Z,7.88
2022-10-18T17:51:08.918Z,8.82
2022-10-18T17:53:35.449Z,9.63
2022-10-18T17:56:02.979Z,8.65
2022-10-18T17:58:29.666Z,9.05
2022-10-18T18:00:56.107Z,9.50
2022-10-18T18:03:22.747Z,9.07
2022-10-18T18:05:49.405Z,9.15
2022-10-18T18:08:15.917Z,9.05
2022-10-18T18:10:42.439Z,9.30
2022-10-18T18:13:09.075Z,9.73
2022-10-18T18:15:35.975Z,8.80
2022-10-18T18:18:02.500Z,9.80
2022-10-18T18:20:29.006Z,9.27
2022-10-18T18:22:55.475Z,8.93
2022-10-18T18:25:21.997Z,8.50
2022-10-18T18:27:48.496Z,8.73
2022-10-18T18:30:17.791Z,10.15
2022-10-18T18:32:44.466Z,12.18
2022-10-18T18:35:10.966Z,12.85
2022-10-18T18:37:37.455Z,11.77
2022-10-18T18:40:04.156Z,11.65
2022-10-18T18:42:30.834Z,10.93
2022-10-18T18:44:57.555Z,9.88
2022-10-18T18:47:24.126Z,9.55
2022-10-18T18:49:51.719Z,10.50
2022-10-18T18:52:18.225Z,9.82
2022-10-18T18:54:45.096Z,9.30
2022-10-18T18:57:11.615Z,9.48
2022-10-18T18:59:38.486Z,8.30
2022-10-18T19:02:05.036Z,9.00
2022-10-18T19:04:31.568Z,9.18
2022-10-18T19:06:58.056Z,8.35
2022-10-18T19:09:26.605Z,9.13
2022-10-18T19:11:53.982Z,8.80
2022-10-18T19:17:02.516Z,8.10
2022-10-18T19:19:30.108Z,9.18
2022-10-18T19:21:57.684Z,8.80
2022-10-18T19:24:25.470Z,7.70
2022-10-18T19:26:56.376Z,7.65
2022-10-18T19:29:26.807Z,8.25
2022-10-18T19:31:54.435Z,9.13
2022-10-18T19:34:21.857Z,8.52
2022-10-18T19:36:48.995Z,7.65
2022-10-18T19:39:18.411Z,8.48
2022-10-18T19:41:45.897Z,8.27
2022-10-18T19:44:12.494Z,7.95
2022-10-18T19:46:39.096Z,8.52
2022-10-18T19:49:05.556Z,7.97
2022-10-18T19:51:32.097Z,8.75
2022-10-18T19:53:58.597Z,7.72
2022-10-18T19:56:25.799Z,8.00
2022-10-18T19:58:52.658Z,7.93
2022-10-18T20:01:19.712Z,7.25
2022-10-18T20:03:46.836Z,7.30
2022-10-18T20:06:13.597Z,7.13
2022-10-18T20:08:40.465Z,7.47
2022-10-18T20:11:08.346Z,8.07
2022-10-18T20:13:35.087Z,6.97
2022-10-18T20:16:01.876Z,7.97
2022-10-18T20:18:28.518Z,7.68
2022-10-18T20:20:55.025Z,7.55
2022-10-18T20:23:21.616Z,7.32
2022-10-18T20:25:57.076Z,6.88
2022-10-18T20:28:24.890Z,7.80
2022-10-18T20:31:00.436Z,7.10
2022-10-18T20:33:27.346Z,5.47
2022-10-18T20:35:53.802Z,6.85
2022-10-18T20:38:20.296Z,7.20
2022-10-18T20:40:46.916Z,6.93
2022-10-18T20:43:13.365Z,8.13
2022-10-18T20:45:39.853Z,6.95
2022-10-18T20:48:06.487Z,6.72
2022-10-18T20:50:32.966Z,6.57
2022-10-18T20:52:59.446Z,7.07
2022-10-18T20:55:25.932Z,6.55
2022-10-18T20:57:52.415Z,6.82
2022-10-18T21:00:18.915Z,6.50
2022-10-18T21:02:45.422Z,6.53
2022-10-18T21:05:12.083Z,6.18
2022-10-18T21:07:38.577Z,6.82
2022-10-18T21:10:05.349Z,6.30
2022-10-18T21:12:32.080Z,6.47
2022-10-18T21:14:58.766Z,6.43
2022-10-18T21:17:25.260Z,6.40
2022-10-18T21:19:53.702Z,6.15
2022-10-18T21:22:20.167Z,6.60
2022-10-18T21:24:46.726Z,5.80
2022-10-18T21:27:13.798Z,6.07
2022-10-18T21:29:40.255Z,6.00
2022-10-18T21:32:06.856Z,5.97
2022-10-18T21:34:33.366Z,6.20
2022-10-18T21:36:59.853Z,6.20
2022-10-18T21:39:26.357Z,6.05
2022-10-18T21:41:53.205Z,6.10
2022-10-18T21:44:19.776Z,5.55
2022-10-18T21:46:46.941Z,6.38
2022-10-18T21:49:14.165Z,6.15
2022-10-18T21:51:40.628Z,4.32
2022-10-18T21:54:08.099Z,6.15
2022-10-18T21:56:35.297Z,5.85
2022-10-18T21:59:01.972Z,5.60
2022-10-18T22:01:36.285Z,5.78
2022-10-18T22:04:04.335Z,5.28
2022-10-18T22:06:32.810Z,5.15
2022-10-18T22:09:00.745Z,5.20
2022-10-18T22:11:29.079Z,5.55
2022-10-18T22:13:55.785Z,5.18
2022-10-18T22:16:22.756Z,5.53
2022-10-18T22:18:50.137Z,5.63
2022-10-18T22:21:17.399Z,5.20
2022-10-18T22:23:45.215Z,5.22
2022-10-18T22:26:16.497Z,5.35
2022-10-18T22:28:43.604Z,5.20
2022-10-18T22:31:20.526Z,5.00
2022-10-18T22:33:47.044Z,5.10
2022-10-18T22:36:13.740Z,5.10
2022-10-18T22:38:42.528Z,5.35
2022-10-18T22:41:10.023Z,5.63
2022-10-18T22:43:36.608Z,5.15
2022-10-18T22:46:07.176Z,5.07
2022-10-18T22:48:33.737Z,4.85
2022-10-18T22:51:00.515Z,4.78
2022-10-18T22:53:27.350Z,4.72
2022-10-18T22:55:53.861Z,4.88
2022-10-18T22:58:20.635Z,4.80
2022-10-18T23:00:47.276Z,4.72
2022-10-18T23:03:18.088Z,4.70
2022-10-18T23:05:45.611Z,4.60
2022-10-18T23:08:12.909Z,4.82
2022-10-18T23:10:40.055Z,4.00
2022-10-18T23:13:06.589Z,4.40
2022-10-18T23:15:33.712Z,4.07
2022-10-18T23:18:00.339Z,4.60
2022-10-18T23:20:27.313Z,4.70
2022-10-18T23:22:53.877Z,3.63
2022-10-18T23:25:20.497Z,4.40
2022-10-18T23:27:46.972Z,4.30
2022-10-18T23:30:13.629Z,4.93
2022-10-18T23:32:40.136Z,3.97
2022-10-18T23:35:07.156Z,4.82
2022-10-18T23:37:34.041Z,4.95
2022-10-18T23:40:00.816Z,3.80
2022-10-18T23:42:27.468Z,4.30
2022-10-18T23:44:53.957Z,3.85
2022-10-18T23:47:20.405Z,4.57
2022-10-18T23:49:46.956Z,4.25
2022-10-18T23:52:13.487Z,4.10
2022-10-18T23:54:40.068Z,4.15
2022-10-18T23:57:06.696Z,4.30
2022-10-18T23:59:33.256Z,4.13
